createdAt,value
2022-07-31T00:00:16.302Z,101331.94
2022-07-31T00:01:18.461Z,101325.97
2022-07-31T00:02:21.739Z,101387.91
2022-07-31T00:03:23.906Z,101324.06
2022-07-31T00:04:28.374Z,101324.06
2022-07-31T00:05:31.238Z,101330.31
2022-07-31T00:06:34.390Z,101324.06
2022-07-31T00:07:36.729Z,101325.13
2022-07-31T00:08:39.893Z,101325.13
2022-07-31T00:09:49.260Z,101320.78
2022-07-31T00:10:58.074Z,101319.97
2022-07-31T00:12:00.328Z,101325.38
2022-07-31T00:13:03.480Z,101323.69
2022-07-31T00:14:05.790Z,101329.94
2022-07-31T00:15:12.601Z,101319.38
2022-07-31T00:16:14.823Z,101319.38
2022-07-31T00:17:20.602Z,101320.44
2022-07-31T00:18:22.755Z,101321.47
2022-07-31T00:19:25.959Z,101315.47
2022-07-31T00:20:28.141Z,101320.06
2022-07-31T00:21:31.446Z,101317.59
2022-07-31T00:22:33.744Z,101316.78
2022-07-31T00:23:36.970Z,101322.19
2022-07-31T00:24:39.235Z,101318.66
2022-07-31T00:25:42.427Z,101318.88
2022-07-31T00:26:44.676Z,101314.56
2022-07-31T00:27:47.899Z,101318.88
2022-07-31T00:28:50.263Z,101313.72
2022-07-31T00:29:53.433Z,101324.53
2022-07-31T00:30:57.207Z,101316.41
2022-07-31T00:32:00.348Z,101313.47
2022-07-31T00:33:02.448Z,101313.72
2022-07-31T00:34:05.719Z,101314.56
2022-07-31T00:35:08.835Z,101309.13
2022-07-31T00:36:12.528Z,101310.19
2022-07-31T00:37:14.803Z,101307.47
2022-07-31T00:38:27.312Z,101312.09
2022-07-31T00:39:31.108Z,101307.72
2022-07-31T00:40:34.365Z,101304.41
2022-07-31T00:41:39.903Z,101304.66
2022-07-31T00:42:43.635Z,101303.03
2022-07-31T00:43:45.755Z,101308.44
2022-07-31T00:44:49.027Z,101306.19
2022-07-31T00:45:58.721Z,101306.19
2022-07-31T00:47:04.029Z,101304.53
2022-07-31T00:48:06.929Z,101300.19
2022-07-31T00:49:10.758Z,101293.16
2022-07-31T00:50:13.294Z,101302.06
2022-07-31T00:51:18.238Z,101297.50
2022-07-31T00:52:20.854Z,101295.84
2022-07-31T00:53:23.994Z,101293.16
2022-07-31T00:54:26.263Z,101286.56
2022-07-31T00:55:29.455Z,101297.97
2022-07-31T00:56:31.587Z,101278.22
2022-07-31T00:57:34.888Z,101286.31
2022-07-31T00:58:37.114Z,101288.19
2022-07-31T00:59:40.252Z,101288.19
2022-07-31T01:00:43.611Z,101276.56
2022-07-31T01:01:45.837Z,101280.09
2022-07-31T01:02:50.426Z,101281.16
2022-07-31T01:03:53.572Z,101282.22
2022-07-31T01:04:56.768Z,101280.31
2022-07-31T01:05:59.929Z,101279.50
2022-07-31T01:07:02.596Z,101286.56
2022-07-31T01:08:06.560Z,101282.22
2022-07-31T01:09:08.946Z,101287.63
2022-07-31T01:10:15.421Z,101289.50
2022-07-31T01:11:22.408Z,101281.63
2022-07-31T01:12:30.906Z,101281.38
2022-07-31T01:13:39.510Z,101275.16
2022-07-31T01:14:47.350Z,101283.25
2022-07-31T01:15:50.632Z,101285.13
2022-07-31T01:16:57.924Z,101289.72
2022-07-31T01:18:01.676Z,101287.81
2022-07-31T01:19:13.117Z,101290.78
2022-07-31T01:20:16.037Z,101296.19
2022-07-31T01:21:24.265Z,101304.53
2022-07-31T01:22:42.711Z,101293.72
2022-07-31T01:24:31.075Z,101296.41
2022-07-31T01:26:03.401Z,101282.53
2022-07-31T01:27:27.349Z,101287.94
2022-07-31T01:28:52.538Z,101290.06
2022-07-31T01:30:00.141Z,101288.41
2022-07-31T01:32:38.435Z,101285.34
2022-07-31T01:33:47.881Z,101289.94
2022-07-31T01:34:55.771Z,101290.16
2022-07-31T01:36:03.479Z,101285.00
2022-07-31T01:37:13.685Z,101286.06
2022-07-31T01:38:22.273Z,101288.75
2022-07-31T01:39:27.373Z,101288.16
2022-07-31T01:40:43.150Z,101293.81
2022-07-31T01:41:47.623Z,101279.69
2022-07-31T01:42:55.162Z,101284.28
2022-07-31T01:43:59.048Z,101287.19
2022-07-31T01:45:05.657Z,101288.28
2022-07-31T01:46:12.033Z,101290.13
2022-07-31T01:47:18.023Z,101286.88
2022-07-31T01:48:20.999Z,101287.91
2022-07-31T01:49:24.782Z,101291.69
2022-07-31T01:50:43.047Z,101294.38
2022-07-31T01:51:49.387Z,101291.91
2022-07-31T01:52:53.292Z,101285.69
2022-07-31T01:53:57.369Z,101291.31
2022-07-31T01:55:00.936Z,101289.44
2022-07-31T01:56:05.131Z,101286.16
2022-07-31T01:57:13.124Z,101293.41
2022-07-31T01:58:21.187Z,101288.25
2022-07-31T01:59:25.985Z,101292.00
2022-07-31T02:01:08.883Z,101284.34
2022-07-31T02:02:15.421Z,101288.13
2022-07-31T02:03:43.765Z,101287.50
2022-07-31T02:04:47.146Z,101280.47
2022-07-31T02:05:52.015Z,101282.34
2022-07-31T02:06:57.156Z,101281.75
2022-07-31T02:07:59.949Z,101282.81
2022-07-31T02:09:04.211Z,101280.94
2022-07-31T02:10:10.072Z,101276.81
2022-07-31T02:11:14.425Z,101275.75
2022-07-31T02:12:18.070Z,101275.19
2022-07-31T02:13:38.284Z,101277.28
2022-07-31T02:14:43.108Z,101267.50
2022-07-31T02:15:47.157Z,101272.34
2022-07-31T02:16:55.023Z,101269.88
2022-07-31T02:18:12.237Z,101263.88
2022-07-31T02:19:57.771Z,101265.13
2022-07-31T02:21:02.662Z,101267.22
2022-07-31T02:22:06.747Z,101265.59
2022-07-31T02:23:09.385Z,101267.69
2022-07-31T02:24:12.615Z,101267.06
2022-07-31T02:25:14.930Z,101272.72
2022-07-31T02:26:18.378Z,101265.91
2022-07-31T02:27:58.173Z,101264.03
2022-07-31T02:28:45.801Z,101265.31
2022-07-31T02:29:48.676Z,101268.84
2022-07-31T02:30:53.156Z,101266.59
2022-07-31T02:32:09.733Z,101265.78
2022-07-31T02:33:15.486Z,101260.84
2022-07-31T02:34:20.117Z,101261.06
2022-07-31T02:35:32.014Z,101256.72
2022-07-31T02:36:35.696Z,101261.50
2022-07-31T02:37:40.513Z,101257.41
2022-07-31T02:38:43.777Z,101252.22
2022-07-31T02:39:47.771Z,101263.50
2022-07-31T02:40:51.301Z,101261.22
2022-07-31T02:41:57.750Z,101259.59
2022-07-31T02:43:00.408Z,101254.66
2022-07-31T02:44:04.518Z,101254.06
2022-07-31T02:45:09.226Z,101248.06
2022-07-31T02:46:13.914Z,101264.47
2022-07-31T02:47:17.616Z,101253.91
2022-07-31T02:48:21.404Z,101255.16
2022-07-31T02:49:25.778Z,101251.91
2022-07-31T02:50:29.741Z,101254.84
2022-07-31T02:51:38.795Z,101250.47
2022-07-31T02:52:45.123Z,101249.63
2022-07-31T02:53:48.572Z,101249.06
2022-07-31T02:54:52.878Z,101241.19
2022-07-31T02:55:57.031Z,101246.59
2022-07-31T02:57:01.249Z,101245.16
2022-07-31T02:58:03.730Z,101247.03
2022-07-31T02:59:07.152Z,101245.38
2022-07-31T03:00:27.206Z,101245.38
2022-07-31T03:01:35.490Z,101252.88
2022-07-31T03:02:39.351Z,101251.25
2022-07-31T03:03:43.054Z,101251.47
2022-07-31T03:04:46.278Z,101254.41
2022-07-31T03:05:49.591Z,101254.41
2022-07-31T03:06:51.739Z,101258.34
2022-07-31T03:07:54.948Z,101255.88
2022-07-31T03:08:58.321Z,101254.25
2022-07-31T03:10:00.760Z,101260.66
2022-07-31T03:11:19.305Z,101260.06
2022-07-31T03:12:22.534Z,101250.78
2022-07-31T03:13:28.555Z,101247.03
2022-07-31T03:14:33.092Z,101251.59
2022-07-31T03:15:39.120Z,101252.88
2022-07-31T03:16:43.311Z,101258.50
2022-07-31T03:17:49.319Z,101250.41
2022-07-31T03:18:58.998Z,101244.41
2022-07-31T03:20:01.226Z,101237.41
2022-07-31T03:21:05.567Z,101246.50
2022-07-31T03:22:13.582Z,101252.97
2022-07-31T03:23:20.607Z,101238.88
2022-07-31T03:24:28.723Z,101247.19
2022-07-31T03:25:34.187Z,101247.41
2022-07-31T03:26:37.880Z,101244.72
2022-07-31T03:27:40.088Z,101250.13
2022-07-31T03:28:43.713Z,101247.41
2022-07-31T03:29:46.028Z,101250.13
2022-07-31T03:30:55.094Z,101252.81
2022-07-31T03:32:02.106Z,101255.50
2022-07-31T03:33:06.760Z,101248.25
2022-07-31T03:34:13.894Z,101245.75
2022-07-31T03:35:16.751Z,101233.41
2022-07-31T03:36:19.864Z,101245.56
2022-07-31T03:37:23.258Z,101248.25
2022-07-31T03:38:39.144Z,101243.91
2022-07-31T03:39:46.767Z,101249.28
2022-07-31T03:40:49.043Z,101244.13
2022-07-31T03:41:53.312Z,101241.66
2022-07-31T03:42:56.518Z,101242.72
2022-07-31T03:44:00.130Z,101235.44
2022-07-31T03:45:03.702Z,101243.75
2022-07-31T03:46:07.528Z,101243.13
2022-07-31T03:47:09.980Z,101243.13
2022-07-31T03:48:15.701Z,101240.66
2022-07-31T03:49:18.452Z,101243.38
2022-07-31T03:50:22.539Z,101240.91
2022-07-31T03:51:24.975Z,101240.06
2022-07-31T03:52:28.895Z,101236.56
2022-07-31T03:53:31.834Z,101241.13
2022-07-31T03:54:35.212Z,101236.75
2022-07-31T03:55:50.667Z,101235.09
2022-07-31T03:56:55.090Z,101236.38
2022-07-31T03:58:00.094Z,101243.41
2022-07-31T03:59:03.478Z,101240.72
2022-07-31T04:00:16.578Z,101240.09
2022-07-31T04:01:21.974Z,101243.63
2022-07-31T04:02:26.968Z,101247.16
2022-07-31T04:03:39.778Z,101245.25
2022-07-31T04:05:09.929Z,101244.47
2022-07-31T04:06:14.048Z,101248.78
2022-07-31T04:07:17.306Z,101245.03
2022-07-31T04:08:20.531Z,101240.72
2022-07-31T04:09:22.814Z,101245.03
2022-07-31T04:10:26.949Z,101246.94
2022-07-31T04:11:30.103Z,101250.66
2022-07-31T04:12:33.402Z,101247.97
2022-07-31T04:13:37.087Z,101248.78
2022-07-31T04:14:40.348Z,101254.19
2022-07-31T04:15:42.868Z,101252.56
2022-07-31T04:16:46.321Z,101253.34
2022-07-31T04:17:50.205Z,101274.09
2022-07-31T04:18:59.132Z,101256.03
2022-07-31T04:20:02.432Z,101249.84
2022-07-31T04:21:08.472Z,101253.34
2022-07-31T04:22:11.702Z,101254.19
2022-07-31T04:23:14.194Z,101254.19
2022-07-31T04:24:55.603Z,101246.94
2022-07-31T04:26:25.973Z,101248.78
2022-07-31T04:27:45.647Z,101251.25
2022-07-31T04:28:51.775Z,101252.94
2022-07-31T04:29:53.972Z,101253.75
2022-07-31T04:30:57.114Z,101253.53
2022-07-31T04:31:59.330Z,101248.97
2022-07-31T04:33:09.302Z,101252.88
2022-07-31T04:34:13.185Z,101257.22
2022-07-31T04:35:16.347Z,101259.47
2022-07-31T04:36:30.635Z,101261.75
2022-07-31T04:37:35.945Z,101260.22
2022-07-31T04:38:38.150Z,101260.38
2022-07-31T04:39:41.392Z,101264.28
2022-07-31T04:40:43.705Z,101262.75
2022-07-31T04:41:47.050Z,101257.75
2022-07-31T04:42:50.216Z,101264.13
2022-07-31T04:43:52.461Z,101265.34
2022-07-31T04:44:55.633Z,101265.66
2022-07-31T04:45:58.978Z,101257.97
2022-07-31T04:47:01.251Z,101259.16
2022-07-31T04:48:07.049Z,101257.88
2022-07-31T04:49:11.636Z,101258.25
2022-07-31T04:50:16.497Z,101258.63
2022-07-31T04:51:30.617Z,101253.81
2022-07-31T04:52:35.085Z,101257.13
2022-07-31T04:53:43.153Z,101255.81
2022-07-31T04:54:46.420Z,101250.81
2022-07-31T04:56:04.905Z,101254.94
2022-07-31T04:57:08.183Z,101254.47
2022-07-31T04:58:10.652Z,101255.69
2022-07-31T04:59:15.112Z,101257.91
2022-07-31T05:00:20.347Z,101258.50
2022-07-31T05:01:23.690Z,101264.03
2022-07-31T05:02:26.278Z,101256.50
2022-07-31T05:03:29.601Z,101250.88
2022-07-31T05:04:31.762Z,101253.38
2022-07-31T05:05:36.615Z,101258.31
2022-07-31T05:06:41.990Z,101268.03
2022-07-31T05:07:45.327Z,101258.91
2022-07-31T05:08:51.629Z,101251.63
2022-07-31T05:09:54.946Z,101262.41
2022-07-31T05:11:15.568Z,101255.16
2022-07-31T05:12:19.178Z,101246.69
2022-07-31T05:13:22.573Z,101262.41
2022-07-31T05:14:27.210Z,101257.84
2022-07-31T05:15:29.572Z,101250.81
2022-07-31T05:16:33.802Z,101244.59
2022-07-31T05:17:36.949Z,101252.69
2022-07-31T05:18:58.281Z,101252.91
2022-07-31T05:20:19.736Z,101241.28
2022-07-31T05:21:54.092Z,101244.22
2022-07-31T05:23:16.185Z,101249.38
2022-07-31T05:24:54.658Z,101243.16
2022-07-31T05:25:57.868Z,101241.28
2022-07-31T05:27:01.033Z,101249.16
2022-07-31T05:28:03.317Z,101249.97
2022-07-31T05:29:12.128Z,101248.91
2022-07-31T05:30:14.428Z,101246.63
2022-07-31T05:31:18.703Z,101244.28
2022-07-31T05:32:21.895Z,101245.25
2022-07-31T05:33:24.076Z,101250.53
2022-07-31T05:34:27.537Z,101244.19
2022-07-31T05:35:32.445Z,101242.22
2022-07-31T05:36:35.797Z,101238.56
2022-07-31T05:37:39.305Z,101243.66
2022-07-31T05:38:45.537Z,101244.13
2022-07-31T05:40:17.880Z,101244.38
2022-07-31T05:41:53.050Z,101242.25
2022-07-31T05:43:11.005Z,101243.28
2022-07-31T05:44:28.903Z,101228.38
2022-07-31T05:45:31.087Z,101239.09
2022-07-31T05:46:34.354Z,101234.38
2022-07-31T05:47:39.849Z,101231.31
2022-07-31T05:48:44.975Z,101226.00
2022-07-31T05:49:47.179Z,101226.09
2022-07-31T05:50:51.754Z,101229.75
2022-07-31T05:51:54.611Z,101234.44
2022-07-31T05:52:59.186Z,101233.09
2022-07-31T05:54:31.259Z,101243.00
2022-07-31T05:56:12.609Z,101240.03
2022-07-31T05:57:33.974Z,101240.88
2022-07-31T05:58:38.166Z,101245.22
2022-07-31T05:59:40.311Z,101246.03
2022-07-31T06:00:44.759Z,101246.59
2022-07-31T06:01:46.947Z,101250.72
2022-07-31T06:02:50.201Z,101242.13
2022-07-31T06:04:16.731Z,101251.41
2022-07-31T06:05:21.503Z,101256.09
2022-07-31T06:06:24.674Z,101249.16
2022-07-31T06:07:26.919Z,101258.66
2022-07-31T06:08:31.936Z,101249.84
2022-07-31T06:09:35.124Z,101254.50
2022-07-31T06:10:37.789Z,101257.56
2022-07-31T06:11:41.698Z,101251.41
2022-07-31T06:12:43.864Z,101258.00
2022-07-31T06:13:47.289Z,101252.69
2022-07-31T06:15:02.016Z,101251.47
2022-07-31T06:16:14.789Z,101246.97
2022-07-31T06:17:17.272Z,101248.44
2022-07-31T06:18:20.594Z,101246.66
2022-07-31T06:19:24.661Z,101243.44
2022-07-31T06:20:29.597Z,101250.84
2022-07-31T06:21:32.746Z,101240.31
2022-07-31T06:22:34.929Z,101245.28
2022-07-31T06:23:39.577Z,101240.41
2022-07-31T06:24:53.290Z,101243.19
2022-07-31T06:25:57.910Z,101247.31
2022-07-31T06:27:01.576Z,101244.09
2022-07-31T06:28:10.503Z,101241.72
2022-07-31T06:29:13.257Z,101248.31
2022-07-31T06:30:16.729Z,101234.75
2022-07-31T06:31:20.725Z,101235.38
2022-07-31T06:32:23.409Z,101236.53
2022-07-31T06:33:37.039Z,101239.56
2022-07-31T06:34:40.466Z,101234.72
2022-07-31T06:35:43.681Z,101237.19
2022-07-31T06:37:06.100Z,101235.06
2022-07-31T06:38:09.303Z,101241.84
2022-07-31T06:39:54.378Z,101240.34
2022-07-31T06:41:35.629Z,101236.28
2022-07-31T06:42:58.829Z,101236.84
2022-07-31T06:44:23.749Z,101243.19
2022-07-31T06:46:05.457Z,101240.81
2022-07-31T06:47:26.339Z,101244.88
2022-07-31T06:48:52.179Z,101246.03
2022-07-31T06:49:57.206Z,101241.19
2022-07-31T06:52:28.293Z,101245.34
2022-07-31T06:53:30.970Z,101241.88
2022-07-31T06:54:35.645Z,101239.47
2022-07-31T06:55:38.114Z,101239.78
2022-07-31T06:56:47.838Z,101240.69
2022-07-31T06:57:51.002Z,101239.66
2022-07-31T06:58:53.485Z,101239.47
2022-07-31T06:59:56.628Z,101239.28
2022-07-31T07:01:00.201Z,101245.06
2022-07-31T07:02:02.699Z,101231.28
2022-07-31T07:03:07.360Z,101238.22
2022-07-31T07:04:09.758Z,101223.84
2022-07-31T07:05:13.070Z,101231.50
2022-07-31T07:06:15.655Z,101240.22
2022-07-31T07:07:19.245Z,101226.94
2022-07-31T07:08:25.207Z,101226.41
2022-07-31T07:09:27.397Z,101232.41
2022-07-31T07:10:31.967Z,101242.78
2022-07-31T07:11:34.152Z,101229.50
2022-07-31T07:12:37.320Z,101231.69
2022-07-31T07:13:45.847Z,101227.66
2022-07-31T07:14:51.381Z,101227.97
2022-07-31T07:15:54.518Z,101224.16
2022-07-31T07:17:03.785Z,101224.19
2022-07-31T07:18:08.070Z,101226.41
2022-07-31T07:19:31.498Z,101222.09
2022-07-31T07:20:34.481Z,101213.41
2022-07-31T07:21:37.629Z,101225.41
2022-07-31T07:22:39.757Z,101218.13
2022-07-31T07:23:43.281Z,101217.59
2022-07-31T07:25:01.609Z,101218.47
2022-07-31T07:26:05.925Z,101212.50
2022-07-31T07:27:09.104Z,101219.88
2022-07-31T07:28:15.207Z,101227.28
2022-07-31T07:29:34.724Z,101214.25
2022-07-31T07:30:37.208Z,101221.34
2022-07-31T07:31:41.050Z,101215.06
2022-07-31T07:32:43.174Z,101216.69
2022-07-31T07:33:47.899Z,101217.53
2022-07-31T07:34:59.605Z,101216.16
2022-07-31T07:36:29.860Z,101217.56
2022-07-31T07:37:39.011Z,101220.00
2022-07-31T07:38:41.538Z,101218.69
2022-07-31T07:39:45.154Z,101212.97
2022-07-31T07:40:47.538Z,101223.34
2022-07-31T07:41:53.136Z,101221.44
2022-07-31T07:42:59.927Z,101221.97
2022-07-31T07:44:07.522Z,101227.97
2022-07-31T07:45:10.930Z,101223.09
2022-07-31T07:46:14.335Z,101224.72
2022-07-31T07:47:21.953Z,101223.66
2022-07-31T07:48:24.162Z,101222.56
2022-07-31T07:49:47.594Z,101224.22
2022-07-31T07:50:58.530Z,101221.50
2022-07-31T07:52:06.734Z,101223.97
2022-07-31T07:53:14.499Z,101222.03
2022-07-31T07:54:44.002Z,101216.09
2022-07-31T07:56:05.024Z,101220.16
2022-07-31T07:57:28.010Z,101217.19
2022-07-31T07:58:49.209Z,101211.19
2022-07-31T08:00:20.219Z,101212.88
2022-07-31T08:01:35.139Z,101209.63
2022-07-31T08:03:46.649Z,101213.47
2022-07-31T08:04:16.892Z,101214.56
2022-07-31T08:05:19.107Z,101218.94
2022-07-31T08:06:23.307Z,101216.22
2022-07-31T08:07:41.899Z,101221.41
2022-07-31T08:09:05.804Z,101208.84
2022-07-31T08:10:26.612Z,101212.41
2022-07-31T08:11:36.759Z,101204.78
2022-07-31T08:12:54.768Z,101212.69
2022-07-31T08:14:20.809Z,101210.53
2022-07-31T08:15:51.726Z,101209.44
2022-07-31T08:17:12.811Z,101207.28
2022-07-31T08:18:17.554Z,101215.16
2022-07-31T08:19:21.066Z,101222.78
2022-07-31T08:20:23.374Z,101213.28
2022-07-31T08:21:28.154Z,101207.31
2022-07-31T08:22:31.038Z,101211.41
2022-07-31T08:23:34.177Z,101211.97
2022-07-31T08:24:38.989Z,101219.59
2022-07-31T08:25:41.205Z,101216.38
2022-07-31T08:26:58.586Z,101205.72
2022-07-31T08:28:04.243Z,101207.13
2022-07-31T08:29:08.262Z,101213.13
2022-07-31T08:30:12.606Z,101207.41
2022-07-31T08:31:15.459Z,101214.22
2022-07-31T08:32:32.422Z,101218.03
2022-07-31T08:33:42.171Z,101218.34
2022-07-31T08:34:44.385Z,101216.69
2022-07-31T08:35:50.204Z,101212.91
2022-07-31T08:36:53.607Z,101215.34
2022-07-31T08:38:03.140Z,101221.91
2022-07-31T08:39:17.625Z,101214.78
2022-07-31T08:40:43.272Z,101214.78
2022-07-31T08:41:49.208Z,101217.53
2022-07-31T08:42:52.606Z,101215.34
2022-07-31T08:44:01.725Z,101217.25
2022-07-31T08:45:08.139Z,101223.53
2022-07-31T08:46:15.165Z,101218.06
2022-07-31T08:47:21.995Z,101218.34
2022-07-31T08:48:29.023Z,101218.63
2022-07-31T08:49:37.134Z,101219.69
2022-07-31T08:50:41.366Z,101216.16
2022-07-31T08:51:54.169Z,101212.88
2022-07-31T08:53:23.596Z,101210.97
2022-07-31T08:54:35.517Z,101204.97
2022-07-31T08:55:56.121Z,101208.47
2022-07-31T08:57:00.184Z,101208.22
2022-07-31T08:58:03.504Z,101200.81
2022-07-31T08:59:10.038Z,101211.44
2022-07-31T09:00:19.808Z,101207.63
2022-07-31T09:01:22.261Z,101208.16
2022-07-31T09:02:28.708Z,101218.75
2022-07-31T09:03:58.073Z,101208.91
2022-07-31T09:05:02.870Z,101209.97
2022-07-31T09:06:06.930Z,101206.97
2022-07-31T09:07:16.016Z,101205.84
2022-07-31T09:08:23.750Z,101206.94
2022-07-31T09:09:45.219Z,101195.47
2022-07-31T09:11:03.348Z,101199.56
2022-07-31T09:12:13.632Z,101204.19
2022-07-31T09:13:40.398Z,101199.56
2022-07-31T09:15:07.877Z,101198.22
2022-07-31T09:16:12.106Z,101201.50
2022-07-31T09:17:15.933Z,101199.31
2022-07-31T09:18:24.766Z,101196.91
2022-07-31T09:19:53.049Z,101201.53
2022-07-31T09:21:03.266Z,101190.94
2022-07-31T09:22:10.292Z,101192.84
2022-07-31T09:23:14.417Z,101190.69
2022-07-31T09:24:28.359Z,101189.31
2022-07-31T09:25:31.740Z,101195.06
2022-07-31T09:26:34.950Z,101192.66
2022-07-31T09:27:38.264Z,101189.66
2022-07-31T09:28:43.593Z,101186.97
2022-07-31T09:29:49.276Z,101174.72
2022-07-31T09:31:33.539Z,101182.09
2022-07-31T09:32:54.091Z,101179.66
2022-07-31T09:34:28.811Z,101181.56
2022-07-31T09:35:54.038Z,101175.31
2022-07-31T09:36:56.248Z,101175.59
2022-07-31T09:38:36.219Z,101173.41
2022-07-31T09:40:14.873Z,101174.50
2022-07-31T09:41:57.973Z,101172.88
2022-07-31T09:43:25.875Z,101169.63
2022-07-31T09:44:39.089Z,101174.00
2022-07-31T09:45:48.490Z,101172.09
2022-07-31T09:46:52.518Z,101172.91
2022-07-31T09:48:06.985Z,101171.78
2022-07-31T09:49:09.854Z,101172.63
2022-07-31T09:50:15.888Z,101168.22
2022-07-31T09:51:18.861Z,101167.41
2022-07-31T09:52:23.443Z,101171.22
2022-07-31T09:53:27.518Z,101165.75
2022-07-31T09:54:44.232Z,101163.28
2022-07-31T09:56:07.500Z,101164.38
2022-07-31T09:57:14.017Z,101158.34
2022-07-31T09:58:21.124Z,101164.91
2022-07-31T09:59:24.140Z,101163.81
2022-07-31T10:00:28.550Z,101156.44
2022-07-31T10:01:33.942Z,101156.94
2022-07-31T10:02:40.530Z,101152.00
2022-07-31T10:03:42.910Z,101150.06
2022-07-31T10:04:47.746Z,101140.22
2022-07-31T10:05:51.857Z,101149.19
2022-07-31T10:06:57.734Z,101154.09
2022-07-31T10:08:01.759Z,101148.09
2022-07-31T10:09:33.663Z,101153.28
2022-07-31T10:10:44.427Z,101148.34
2022-07-31T10:12:16.034Z,101146.66
2022-07-31T10:13:22.711Z,101147.22
2022-07-31T10:14:28.943Z,101149.66
2022-07-31T10:15:34.333Z,101152.66
2022-07-31T10:17:00.205Z,101152.06
2022-07-31T10:18:35.638Z,101146.88
2022-07-31T10:20:10.634Z,101135.34
2022-07-31T10:21:44.096Z,101135.34
2022-07-31T10:22:58.678Z,101130.09
2022-07-31T10:24:11.346Z,101130.59
2022-07-31T10:25:21.280Z,101132.16
2022-07-31T10:26:39.189Z,101125.88
2022-07-31T10:27:48.723Z,101125.00
2022-07-31T10:28:52.389Z,101127.97
2022-07-31T10:29:56.628Z,101124.97
2022-07-31T10:31:01.280Z,101123.56
2022-07-31T10:32:06.491Z,101118.63
2022-07-31T10:33:40.735Z,101120.22
2022-07-31T10:34:56.510Z,101117.94
2022-07-31T10:36:30.480Z,101119.50
2022-07-31T10:37:59.895Z,101114.78
2022-07-31T10:39:29.389Z,101112.75
2022-07-31T10:41:03.943Z,101111.78
2022-07-31T10:42:13.402Z,101116.00
2022-07-31T10:43:21.683Z,101118.88
2022-07-31T10:44:48.320Z,101112.94
2022-07-31T10:46:02.636Z,101109.47
2022-07-31T10:47:20.474Z,101106.28
2022-07-31T10:48:54.076Z,101111.31
2022-07-31T10:50:31.481Z,101105.41
2022-07-31T10:51:57.558Z,101103.63
2022-07-31T10:53:20.045Z,101099.44
2022-07-31T10:54:45.774Z,101100.66
2022-07-31T10:56:11.486Z,101106.59
2022-07-31T10:57:56.950Z,101099.09
2022-07-31T10:59:33.088Z,101095.97
2022-07-31T11:01:06.240Z,101092.63
2022-07-31T11:02:30.733Z,101100.53
2022-07-31T11:03:55.493Z,101096.69
2022-07-31T11:05:24.908Z,101099.94
2022-07-31T11:06:59.202Z,101092.53
2022-07-31T11:08:25.418Z,101090.84
2022-07-31T11:09:50.315Z,101088.88
2022-07-31T11:11:32.989Z,101090.91
2022-07-31T11:13:01.099Z,101085.00
2022-07-31T11:14:33.081Z,101084.25
2022-07-31T11:16:05.379Z,101083.22
2022-07-31T11:18:21.999Z,101083.03
2022-07-31T11:19:15.788Z,101077.56
2022-07-31T11:20:20.226Z,101083.03
2022-07-31T11:21:39.997Z,101079.16
2022-07-31T11:22:52.204Z,101078.03
2022-07-31T11:24:03.072Z,101075.59
2022-07-31T11:25:09.077Z,101075.91
2022-07-31T11:26:13.568Z,101069.59
2022-07-31T11:27:15.705Z,101072.34
2022-07-31T11:28:23.734Z,101067.69
2022-07-31T11:30:00.202Z,101069.81
2022-07-31T11:30:53.062Z,101072.25
2022-07-31T11:32:03.852Z,101068.63
2022-07-31T11:33:08.185Z,101057.06
2022-07-31T11:34:13.138Z,101065.81
2022-07-31T11:35:29.319Z,101058.38
2022-07-31T11:36:33.334Z,101057.78
2022-07-31T11:37:46.513Z,101057.47
2022-07-31T11:39:01.781Z,101052.00
2022-07-31T11:40:13.496Z,101049.56
2022-07-31T11:41:22.825Z,101053.59
2022-07-31T11:42:33.204Z,101049.94
2022-07-31T11:43:47.039Z,101047.41
2022-07-31T11:44:53.864Z,101047.84
2022-07-31T11:45:58.315Z,101043.91
2022-07-31T11:47:03.698Z,101047.66
2022-07-31T11:48:35.988Z,101040.47
2022-07-31T11:49:48.720Z,101055.81
2022-07-31T11:50:52.839Z,101051.34
2022-07-31T11:52:00.678Z,101048.63
2022-07-31T11:53:07.003Z,101042.00
2022-07-31T11:54:12.012Z,101044.44
2022-07-31T11:55:17.226Z,101042.00
2022-07-31T11:56:21.758Z,101037.03
2022-07-31T11:57:52.274Z,101042.50
2022-07-31T11:58:56.785Z,101024.22
2022-07-31T11:59:59.493Z,101031.94
2022-07-31T12:01:06.456Z,101030.59
2022-07-31T12:02:10.896Z,101033.94
2022-07-31T12:03:16.077Z,101046.34
2022-07-31T12:04:22.406Z,101031.28
2022-07-31T12:05:37.815Z,101029.66
2022-07-31T12:06:44.157Z,101029.16
2022-07-31T12:07:48.049Z,101027.03
2022-07-31T12:08:52.065Z,101025.38
2022-07-31T12:10:00.449Z,101037.16
2022-07-31T12:11:11.351Z,101032.50
2022-07-31T12:12:19.292Z,101026.72
2022-07-31T12:13:26.612Z,101027.22
2022-07-31T12:14:30.454Z,101020.00
2022-07-31T12:15:36.159Z,101015.03
2022-07-31T12:16:42.222Z,101015.03
2022-07-31T12:17:44.851Z,101008.16
2022-07-31T12:18:50.478Z,101004.28
2022-07-31T12:19:58.626Z,101002.84
2022-07-31T12:21:03.811Z,101003.06
2022-07-31T12:22:14.095Z,100995.03
2022-07-31T12:23:40.878Z,100993.63
2022-07-31T12:24:40.669Z,100988.13
2022-07-31T12:25:45.920Z,100990.06
2022-07-31T12:26:52.134Z,100996.38
2022-07-31T12:27:55.408Z,100988.13
2022-07-31T12:29:01.581Z,100990.88
2022-07-31T12:30:13.950Z,100986.19
2022-07-31T12:31:17.199Z,100989.22
2022-07-31T12:32:26.027Z,100977.47
2022-07-31T12:33:29.347Z,100981.31
2022-07-31T12:34:38.234Z,100973.38
2022-07-31T12:35:55.655Z,100970.13
2022-07-31T12:37:04.310Z,100976.75
2022-07-31T12:38:36.820Z,100967.16
2022-07-31T12:39:53.769Z,100971.34
2022-07-31T12:41:07.953Z,100965.63
2022-07-31T12:42:21.925Z,100964.31
2022-07-31T12:43:34.156Z,100966.56
2022-07-31T12:44:36.314Z,100969.59
2022-07-31T12:45:40.032Z,100958.41
2022-07-31T12:46:42.307Z,100965.31
2022-07-31T12:47:45.740Z,100973.34
2022-07-31T12:48:55.505Z,100968.47
2022-07-31T12:49:59.523Z,100964.72
2022-07-31T12:51:01.736Z,100958.22
2022-07-31T12:52:05.316Z,100956.88
2022-07-31T12:53:07.452Z,100955.88
2022-07-31T12:54:11.892Z,100960.00
2022-07-31T12:55:17.246Z,100955.44
2022-07-31T12:56:23.640Z,100947.84
2022-07-31T12:57:26.570Z,100955.84
2022-07-31T12:58:30.863Z,100950.16
2022-07-31T12:59:33.081Z,100959.50
2022-07-31T13:00:39.955Z,100953.81
2022-07-31T13:01:43.547Z,100954.13
2022-07-31T13:02:46.094Z,100950.03
2022-07-31T13:03:51.106Z,100948.72
2022-07-31T13:04:53.287Z,100943.50
2022-07-31T13:05:57.444Z,100945.75
2022-07-31T13:07:00.393Z,100945.22
2022-07-31T13:08:03.629Z,100945.81
2022-07-31T13:09:07.350Z,100949.19
2022-07-31T13:10:20.449Z,100945.09
2022-07-31T13:11:30.517Z,100938.56
2022-07-31T13:12:51.488Z,100940.53
2022-07-31T13:13:56.884Z,100938.38